createdAt,value
2019-05-07T00:00:48.481Z,99.90
2019-05-07T00:03:17.671Z,99.90
2019-05-07T00:05:46.806Z,99.90
2019-05-07T00:08:15.871Z,99.90
2019-05-07T00:10:45.055Z,99.90
2019-05-07T00:13:14.147Z,99.90
2019-05-07T00:15:43.102Z,99.90
2019-05-07T00:18:12.778Z,99.90
2019-05-07T00:20:42.453Z,99.90
2019-05-07T00:23:12.385Z,99.90
2019-05-07T00:25:42.197Z,99.90
2019-05-07T00:28:12.270Z,99.90
2019-05-07T00:30:42.470Z,99.90
2019-05-07T00:33:13.152Z,99.90
2019-05-07T00:35:44.256Z,99.90
2019-05-07T00:38:14.871Z,99.90
2019-05-07T00:40:45.558Z,99.90
2019-05-07T00:43:18.768Z,99.90
2019-05-07T00:45:49.472Z,99.90
2019-05-07T00:48:18.475Z,99.90
2019-05-07T00:50:48.872Z,99.90
2019-05-07T00:53:17.770Z,99.90
2019-05-07T00:55:46.884Z,99.90
2019-05-07T00:58:15.715Z,99.90
2019-05-07T01:00:45.041Z,99.90
2019-05-07T01:03:14.088Z,99.90
2019-05-07T01:05:43.537Z,99.90
2019-05-07T01:08:13.198Z,99.90
2019-05-07T01:10:42.588Z,99.90
2019-05-07T01:13:12.652Z,99.90
2019-05-07T01:15:42.948Z,99.90
2019-05-07T01:18:13.638Z,99.90
2019-05-07T01:20:44.015Z,99.90
2019-05-07T01:23:13.505Z,99.90
2019-05-07T01:25:43.023Z,99.90
2019-05-07T01:28:13.235Z,99.90
2019-05-07T01:30:43.176Z,99.90
2019-05-07T01:33:33.225Z,99.90
2019-05-07T01:36:03.996Z,99.90
2019-05-07T01:38:34.149Z,99.90
2019-05-07T01:41:03.235Z,99.90
2019-05-07T01:43:32.255Z,99.90
2019-05-07T01:46:03.208Z,99.90
2019-05-07T01:48:32.369Z,99.90
2019-05-07T01:51:03.458Z,99.90
2019-05-07T01:53:32.446Z,99.90
2019-05-07T01:56:03.309Z,99.90
2019-05-07T01:58:33.049Z,99.90
2019-05-07T02:01:02.966Z,99.90
2019-05-07T02:03:42.656Z,99.90
2019-05-07T02:06:15.643Z,99.90
2019-05-07T02:09:04.401Z,99.90
2019-05-07T02:11:47.107Z,99.90
2019-05-07T02:14:15.997Z,99.90
2019-05-07T02:16:44.895Z,99.90
2019-05-07T02:19:13.761Z,99.90
2019-05-07T02:21:42.659Z,99.90
2019-05-07T02:24:12.629Z,99.90
2019-05-07T02:26:42.741Z,99.90
2019-05-07T02:29:12.200Z,99.90
2019-05-07T02:31:44.152Z,99.90
2019-05-07T02:34:14.079Z,99.90
2019-05-07T02:36:43.567Z,99.90
2019-05-07T02:39:14.303Z,99.90
2019-05-07T02:41:44.011Z,99.90
2019-05-07T02:44:13.936Z,99.90
2019-05-07T02:47:03.734Z,99.90
2019-05-07T02:49:32.955Z,99.90
2019-05-07T02:52:13.533Z,99.90
2019-05-07T02:55:04.063Z,99.90
2019-05-07T02:57:34.046Z,99.90
2019-05-07T03:00:04.928Z,99.90
2019-05-07T03:02:34.496Z,99.90
2019-05-07T03:05:05.207Z,99.90
2019-05-07T03:07:34.038Z,99.90
2019-05-07T03:10:03.779Z,99.90
2019-05-07T03:12:33.687Z,99.90
2019-05-07T03:15:04.490Z,99.90
2019-05-07T03:17:33.581Z,99.90
2019-05-07T03:20:04.510Z,99.90
2019-05-07T03:22:33.907Z,99.90
2019-05-07T03:25:04.745Z,99.90
2019-05-07T03:27:34.341Z,99.90
2019-05-07T03:30:17.645Z,99.90
2019-05-07T03:32:57.454Z,99.90
2019-05-07T03:35:36.332Z,99.90
2019-05-07T03:38:03.540Z,99.90
2019-05-07T03:40:33.133Z,99.90
2019-05-07T03:43:05.784Z,99.90
2019-05-07T03:45:42.998Z,99.90
2019-05-07T03:48:15.544Z,99.90
2019-05-07T03:50:44.289Z,99.90
2019-05-07T03:53:14.334Z,99.90
2019-05-07T03:55:44.671Z,99.90
2019-05-07T03:58:14.773Z,99.90
2019-05-07T04:00:44.770Z,99.90
2019-05-07T04:03:18.786Z,99.90
2019-05-07T04:05:44.096Z,99.90
2019-05-07T04:08:13.274Z,99.90
2019-05-07T04:10:44.355Z,99.90
2019-05-07T04:13:13.541Z,99.90
2019-05-07T04:16:03.971Z,99.90
2019-05-07T04:18:33.203Z,99.90
2019-05-07T04:21:03.819Z,99.90
2019-05-07T04:23:34.101Z,99.90
2019-05-07T04:26:07.851Z,99.90
2019-05-07T04:28:54.599Z,99.90
2019-05-07T04:31:25.432Z,99.90
2019-05-07T04:33:55.226Z,99.90
2019-05-07T04:36:25.741Z,99.90
2019-05-07T04:38:54.401Z,99.90
2019-05-07T04:41:23.671Z,99.90
2019-05-07T04:43:54.107Z,99.90
2019-05-07T04:46:23.712Z,99.90
2019-05-07T04:48:53.045Z,99.90
2019-05-07T04:51:23.891Z,99.90
2019-05-07T04:53:54.224Z,99.90
2019-05-07T04:56:24.041Z,99.90
2019-05-07T04:58:53.272Z,99.90
2019-05-07T05:01:23.859Z,99.90
2019-05-07T05:03:54.035Z,99.90
2019-05-07T05:06:24.234Z,99.90
2019-05-07T05:08:56.090Z,99.90
2019-05-07T05:11:23.963Z,99.90
2019-05-07T05:13:53.288Z,99.90
2019-05-07T05:16:26.480Z,99.90
2019-05-07T05:18:56.323Z,99.90
2019-05-07T05:21:29.681Z,99.90
2019-05-07T05:24:09.244Z,99.90
2019-05-07T05:26:38.124Z,99.90
2019-05-07T05:29:07.112Z,99.90
2019-05-07T05:31:35.803Z,99.90
2019-05-07T05:34:04.868Z,99.90
2019-05-07T05:36:33.756Z,99.90
2019-05-07T05:39:02.649Z,99.90
2019-05-07T05:41:34.139Z,99.90
2019-05-07T05:44:04.765Z,99.90
2019-05-07T05:46:34.642Z,98.10
2019-05-07T05:49:03.532Z,97.50
2019-05-07T05:51:34.182Z,94.80
2019-05-07T05:54:07.526Z,94.90
2019-05-07T05:56:42.559Z,93.60
2019-05-07T05:59:12.604Z,92.70
2019-05-07T06:01:48.774Z,90.30
2019-05-07T06:04:22.238Z,89.20
2019-05-07T06:07:13.990Z,90.30
2019-05-07T06:09:50.055Z,85.30
2019-05-07T06:12:29.801Z,85.20
2019-05-07T06:15:05.939Z,82.50
2019-05-07T06:17:45.690Z,80.90
2019-05-07T06:20:25.463Z,77.80
2019-05-07T06:23:14.609Z,76.90
2019-05-07T06:25:45.014Z,74.50
2019-05-07T06:28:13.808Z,74.40
2019-05-07T06:30:42.790Z,75.60
2019-05-07T06:33:12.470Z,74.80
2019-05-07T06:35:42.892Z,76.30
2019-05-07T06:38:12.938Z,77.20
2019-05-07T06:40:43.403Z,75.90
2019-05-07T06:43:16.741Z,76.20
2019-05-07T06:45:59.258Z,77.90
2019-05-07T06:48:39.181Z,76.20
2019-05-07T06:50:58.996Z,74.50
2019-05-07T06:53:32.978Z,75.30
2019-05-07T06:56:02.927Z,74.80
2019-05-07T06:58:33.947Z,68.40
2019-05-07T07:01:12.088Z,68.20
2019-05-07T07:03:42.470Z,67.70
2019-05-07T07:06:13.009Z,70.50
2019-05-07T07:08:47.006Z,68.70
2019-05-07T07:11:32.715Z,67.70
2019-05-07T07:14:02.629Z,68.00
2019-05-07T07:16:32.611Z,67.40
2019-05-07T07:19:03.362Z,68.20
2019-05-07T07:21:32.788Z,65.00
2019-05-07T07:24:03.045Z,62.80
2019-05-07T07:26:34.159Z,63.40
2019-05-07T07:29:03.203Z,60.40
2019-05-07T07:31:39.369Z,60.80
2019-05-07T07:34:08.351Z,60.60
2019-05-07T07:36:38.783Z,60.30
2019-05-07T07:39:08.902Z,56.40
2019-05-07T07:41:55.802Z,57.60
2019-05-07T07:44:24.767Z,56.10
2019-05-07T07:46:53.650Z,56.70
2019-05-07T07:49:22.591Z,55.40
2019-05-07T07:51:52.568Z,54.50
2019-05-07T07:54:22.735Z,54.90
2019-05-07T07:56:56.805Z,56.40
2019-05-07T07:59:33.502Z,56.70
2019-05-07T08:02:06.983Z,54.80
2019-05-07T08:04:36.045Z,54.50
2019-05-07T08:07:04.995Z,54.60
2019-05-07T08:09:35.836Z,54.70
2019-05-07T08:12:06.032Z,51.90
2019-05-07T08:14:35.006Z,50.10
2019-05-07T08:17:05.565Z,50.80
2019-05-07T08:19:34.873Z,50.00
2019-05-07T08:22:04.192Z,48.00
2019-05-07T08:24:33.527Z,49.20
2019-05-07T08:27:02.658Z,49.80
2019-05-07T08:29:32.567Z,51.10
2019-05-07T08:32:04.143Z,51.90
2019-05-07T08:34:46.179Z,50.90
2019-05-07T08:37:15.035Z,50.50
2019-05-07T08:39:44.058Z,50.90
2019-05-07T08:42:13.107Z,49.60
2019-05-07T08:44:49.336Z,49.60
2019-05-07T08:47:36.265Z,49.20
2019-05-07T08:50:07.250Z,49.00
2019-05-07T08:52:36.357Z,48.80
2019-05-07T08:55:07.801Z,49.20
2019-05-07T08:57:36.805Z,50.30
2019-05-07T09:00:07.485Z,47.60
2019-05-07T09:02:36.399Z,50.10
2019-05-07T09:05:09.268Z,49.50
2019-05-07T09:07:38.497Z,49.60
2019-05-07T09:10:07.941Z,49.20
2019-05-07T09:12:36.885Z,49.80
2019-05-07T09:15:07.417Z,49.60
2019-05-07T09:17:36.426Z,51.30
2019-05-07T09:20:09.197Z,50.20
2019-05-07T09:22:37.355Z,50.20
2019-05-07T09:25:08.078Z,51.00
2019-05-07T09:27:42.393Z,50.00
2019-05-07T09:30:32.479Z,51.00
2019-05-07T09:33:02.937Z,50.20
2019-05-07T09:35:49.227Z,48.30
2019-05-07T09:38:18.030Z,48.70
2019-05-07T09:40:46.936Z,50.00
2019-05-07T09:43:16.193Z,49.60
2019-05-07T09:45:45.941Z,48.90
2019-05-07T09:48:14.808Z,48.20
2019-05-07T09:50:44.385Z,50.30
2019-05-07T09:53:13.241Z,49.90
2019-05-07T09:55:42.655Z,47.80
2019-05-07T09:58:12.578Z,46.30
2019-05-07T10:00:42.451Z,47.90
2019-05-07T10:03:12.694Z,46.90
2019-05-07T10:05:42.705Z,46.00
2019-05-07T10:08:12.925Z,45.20
2019-05-07T10:10:43.482Z,46.20
2019-05-07T10:13:20.205Z,47.90
2019-05-07T10:15:49.351Z,48.30
2019-05-07T10:18:22.693Z,46.40
2019-05-07T10:20:52.163Z,48.90
2019-05-07T10:23:22.945Z,48.20
2019-05-07T10:25:53.517Z,48.20
2019-05-07T10:28:23.243Z,51.10
2019-05-07T10:30:52.393Z,49.30
2019-05-07T10:33:22.904Z,49.50
2019-05-07T10:35:52.941Z,48.90
2019-05-07T10:38:22.155Z,45.90
2019-05-07T10:40:51.352Z,46.50
2019-05-07T10:43:22.231Z,47.40
2019-05-07T10:46:10.122Z,47.70
2019-05-07T10:48:51.266Z,48.30
2019-05-07T10:51:21.798Z,50.00
2019-05-07T10:53:51.779Z,48.70
2019-05-07T10:56:22.293Z,46.60
2019-05-07T10:58:52.204Z,47.00
2019-05-07T11:01:22.788Z,46.40
2019-05-07T11:03:51.804Z,48.80
2019-05-07T11:06:22.129Z,51.20
2019-05-07T11:08:51.876Z,50.20
2019-05-07T11:11:20.937Z,46.70
2019-05-07T11:13:49.784Z,45.80
2019-05-07T11:16:22.124Z,46.80
2019-05-07T11:18:52.293Z,51.20
2019-05-07T11:21:30.274Z,52.10
2019-05-07T11:24:02.874Z,52.00
2019-05-07T11:26:32.886Z,50.20
2019-05-07T11:29:02.407Z,52.50
2019-05-07T11:31:33.049Z,54.70
2019-05-07T11:34:02.754Z,51.80
2019-05-07T11:36:32.023Z,50.50
2019-05-07T11:39:02.530Z,52.60
2019-05-07T11:41:39.099Z,57.00
2019-05-07T11:44:09.518Z,56.80
2019-05-07T11:46:44.484Z,60.20
2019-05-07T11:49:15.075Z,53.20
2019-05-07T11:51:48.275Z,54.90
2019-05-07T11:54:16.945Z,54.50
2019-05-07T11:56:45.937Z,54.60
2019-05-07T11:59:14.862Z,57.90
2019-05-07T12:01:47.756Z,61.50
2019-05-07T12:04:16.495Z,60.20
2019-05-07T12:06:45.193Z,58.50
2019-05-07T12:09:13.965Z,57.40
2019-05-07T12:11:42.858Z,57.10
2019-05-07T12:14:12.354Z,57.30
2019-05-07T12:16:42.616Z,55.70
2019-05-07T12:19:13.017Z,55.80
2019-05-07T12:21:42.269Z,55.40
2019-05-07T12:24:12.901Z,57.10
2019-05-07T12:26:43.788Z,54.40
2019-05-07T12:29:12.728Z,53.10
2019-05-07T12:31:49.365Z,54.40
2019-05-07T12:34:19.796Z,52.10
2019-05-07T12:36:48.640Z,57.50
2019-05-07T12:39:17.525Z,54.40
2019-05-07T12:41:46.819Z,51.70
2019-05-07T12:44:15.872Z,55.00
2019-05-07T12:46:44.902Z,57.40
2019-05-07T12:49:13.913Z,58.60
2019-05-07T12:52:02.286Z,57.80
2019-05-07T12:54:42.164Z,56.10
2019-05-07T12:57:11.789Z,56.30
2019-05-07T12:59:42.524Z,55.10
2019-05-07T13:02:26.727Z,54.70
2019-05-07T13:04:43.332Z,55.20
2019-05-07T13:07:13.821Z,57.10
2019-05-07T13:09:42.824Z,57.70
2019-05-07T13:12:11.886Z,60.10
2019-05-07T13:14:40.550Z,59.70
2019-05-07T13:17:09.460Z,57.90
2019-05-07T13:19:39.258Z,57.50
2019-05-07T13:22:08.163Z,55.00
2019-05-07T13:24:37.264Z,55.20
2019-05-07T13:27:06.126Z,55.70
2019-05-07T13:29:35.035Z,57.40
2019-05-07T13:32:04.556Z,58.60
2019-05-07T13:34:34.302Z,59.10
2019-05-07T13:37:05.182Z,56.70
2019-05-07T13:39:35.936Z,57.10
2019-05-07T13:42:12.872Z,57.30
2019-05-07T13:44:43.518Z,56.90
2019-05-07T13:47:26.532Z,56.20
2019-05-07T13:49:55.830Z,55.80
2019-05-07T13:52:25.439Z,54.50
2019-05-07T13:54:54.836Z,54.30
2019-05-07T13:57:23.827Z,54.60
2019-05-07T13:59:53.627Z,55.40
2019-05-07T14:02:24.066Z,56.00
2019-05-07T14:04:53.351Z,56.70
2019-05-07T14:07:22.966Z,55.50
2019-05-07T14:09:52.790Z,56.00
2019-05-07T14:12:22.919Z,55.70
2019-05-07T14:14:53.132Z,56.90
2019-05-07T14:17:22.230Z,56.90
2019-05-07T14:19:52.980Z,56.90
2019-05-07T14:22:22.609Z,57.90
2019-05-07T14:24:53.063Z,57.80
2019-05-07T14:27:22.260Z,59.20
2019-05-07T14:29:52.063Z,59.40
2019-05-07T14:32:23.322Z,59.40
2019-05-07T14:35:06.042Z,62.50
2019-05-07T14:37:36.567Z,64.20
2019-05-07T14:40:07.515Z,64.80
2019-05-07T14:42:38.888Z,69.10
2019-05-07T14:45:08.126Z,74.30
2019-05-07T14:47:36.977Z,77.50
2019-05-07T14:50:07.144Z,78.00
2019-05-07T14:52:36.378Z,83.50
2019-05-07T14:55:06.366Z,86.30
2019-05-07T14:57:36.564Z,90.50
2019-05-07T15:00:07.523Z,91.20
2019-05-07T15:02:36.504Z,90.40
2019-05-07T15:05:07.338Z,93.00
2019-05-07T15:07:36.315Z,93.30
2019-05-07T15:10:06.846Z,94.20
2019-05-07T15:12:35.748Z,92.90
2019-05-07T15:15:06.204Z,92.10
2019-05-07T15:17:54.962Z,91.20
2019-05-07T15:20:23.900Z,90.50
2019-05-07T15:23:03.108Z,93.10
2019-05-07T15:25:32.429Z,93.30
2019-05-07T15:28:01.816Z,92.90
2019-05-07T15:30:32.584Z,91.00
2019-05-07T15:33:02.298Z,91.60
2019-05-07T15:35:32.039Z,90.30
2019-05-07T15:38:02.478Z,86.40
2019-05-07T15:40:33.025Z,85.20
2019-05-07T15:43:02.320Z,80.70
2019-05-07T15:45:31.167Z,86.90
2019-05-07T15:48:02.000Z,86.70
2019-05-07T15:50:32.262Z,86.20
2019-05-07T15:53:08.639Z,85.90
2019-05-07T15:55:37.415Z,86.30
2019-05-07T15:58:06.299Z,88.40
2019-05-07T16:00:36.485Z,87.50
2019-05-07T16:03:07.569Z,89.20
2019-05-07T16:05:37.243Z,90.80
2019-05-07T16:08:08.352Z,91.60
2019-05-07T16:10:37.224Z,92.50
2019-05-07T16:13:06.838Z,92.40
2019-05-07T16:15:35.803Z,93.90
2019-05-07T16:18:06.435Z,94.60
2019-05-07T16:20:35.297Z,96.30
2019-05-07T16:23:14.401Z,98.50
2019-05-07T16:25:34.825Z,97.40
2019-05-07T16:28:04.893Z,97.70
2019-05-07T16:30:34.571Z,98.90
2019-05-07T16:33:03.357Z,99.90
2019-05-07T16:35:32.290Z,99.40
2019-05-07T16:38:02.001Z,99.90
2019-05-07T16:40:32.303Z,99.90
2019-05-07T16:43:02.813Z,99.90
2019-05-07T16:45:31.883Z,99.90
2019-05-07T16:48:03.007Z,99.90
2019-05-07T16:50:32.663Z,99.90
2019-05-07T16:53:02.888Z,99.90
2019-05-07T16:55:36.774Z,99.90
2019-05-07T16:58:07.604Z,99.90
2019-05-07T17:00:42.363Z,99.90
2019-05-07T17:03:13.045Z,99.90
2019-05-07T17:05:42.847Z,99.90
2019-05-07T17:08:13.584Z,99.90
2019-05-07T17:10:42.812Z,99.90
2019-05-07T17:13:12.537Z,99.90
2019-05-07T17:15:57.999Z,99.90
2019-05-07T17:18:28.585Z,99.90
2019-05-07T17:20:58.579Z,99.90
2019-05-07T17:23:34.423Z,99.90
2019-05-07T17:25:58.424Z,99.90
2019-05-07T17:28:28.217Z,99.90
2019-05-07T17:30:57.345Z,99.90
2019-05-07T17:33:26.248Z,99.90
2019-05-07T17:35:55.235Z,99.90
2019-05-07T17:38:24.304Z,99.90
2019-05-07T17:40:53.223Z,99.90
2019-05-07T17:43:22.221Z,99.90
2019-05-07T17:45:52.290Z,99.90
2019-05-07T17:48:23.162Z,99.90
2019-05-07T17:50:53.637Z,99.90
2019-05-07T17:53:22.784Z,99.90
2019-05-07T17:55:52.949Z,99.90
2019-05-07T17:58:22.166Z,99.90
2019-05-07T18:00:53.289Z,99.90
2019-05-07T18:03:32.670Z,99.90
2019-05-07T18:06:02.514Z,99.90
2019-05-07T18:08:32.509Z,99.90
2019-05-07T18:11:02.561Z,99.90
2019-05-07T18:13:32.540Z,99.90
2019-05-07T18:16:03.204Z,99.90
2019-05-07T18:18:33.391Z,99.90
2019-05-07T18:21:05.213Z,99.90
2019-05-07T18:23:37.158Z,99.90
2019-05-07T18:26:07.618Z,99.90
2019-05-07T18:28:36.678Z,99.90
2019-05-07T18:31:05.580Z,99.90
2019-05-07T18:33:52.480Z,99.90
2019-05-07T18:36:22.673Z,99.90
2019-05-07T18:38:52.883Z,99.90
2019-05-07T18:41:22.314Z,99.90
2019-05-07T18:43:54.423Z,99.90
2019-05-07T18:46:22.278Z,99.90
2019-05-07T18:48:51.800Z,99.90
2019-05-07T18:51:20.700Z,99.90
2019-05-07T18:53:51.795Z,99.90
2019-05-07T18:56:21.889Z,99.90
2019-05-07T18:58:52.061Z,99.90
2019-05-07T19:01:22.842Z,99.90
2019-05-07T19:03:52.597Z,99.90
2019-05-07T19:06:22.324Z,99.90
2019-05-07T19:08:52.711Z,99.90
2019-05-07T19:11:22.804Z,99.90
2019-05-07T19:13:52.472Z,99.90
2019-05-07T19:16:23.043Z,99.90
2019-05-07T19:18:52.350Z,99.90
2019-05-07T19:21:22.361Z,99.90
2019-05-07T19:23:52.976Z,99.90
2019-05-07T19:26:22.178Z,99.90
2019-05-07T19:28:50.814Z,99.90
2019-05-07T19:31:21.866Z,99.90
2019-05-07T19:33:52.338Z,99.90
2019-05-07T19:36:22.358Z,99.90
2019-05-07T19:38:52.575Z,99.90
2019-05-07T19:41:21.674Z,99.90
2019-05-07T19:43:52.622Z,99.90
2019-05-07T19:46:22.853Z,99.90
2019-05-07T19:48:52.406Z,99.90
2019-05-07T19:51:21.506Z,99.90
2019-05-07T19:53:52.437Z,99.90
2019-05-07T19:56:24.749Z,99.90
2019-05-07T19:58:53.929Z,99.90
2019-05-07T20:01:27.458Z,99.90
2019-05-07T20:03:56.313Z,99.90
2019-05-07T20:06:25.217Z,99.90
2019-05-07T20:09:02.476Z,99.90
2019-05-07T20:11:26.369Z,99.90
2019-05-07T20:13:55.347Z,99.90
2019-05-07T20:16:24.108Z,99.90
2019-05-07T20:18:53.083Z,99.90
2019-05-07T20:21:22.870Z,99.90
2019-05-07T20:23:52.632Z,99.90
2019-05-07T20:26:23.181Z,99.90
2019-05-07T20:28:52.732Z,99.90
2019-05-07T20:31:22.702Z,99.90
2019-05-07T20:33:53.124Z,99.90
2019-05-07T20:36:22.238Z,99.90
2019-05-07T20:38:52.119Z,99.90
2019-05-07T20:41:23.090Z,99.90
2019-05-07T20:43:52.502Z,99.90
2019-05-07T20:46:21.512Z,99.90
2019-05-07T20:48:52.484Z,99.90
2019-05-07T20:51:23.109Z,99.90
2019-05-07T20:53:59.392Z,99.90
2019-05-07T20:56:32.845Z,99.90
2019-05-07T20:59:03.010Z,99.90
2019-05-07T21:01:32.893Z,99.90
2019-05-07T21:04:02.274Z,99.90
2019-05-07T21:06:32.310Z,99.90
2019-05-07T21:09:01.481Z,99.90
2019-05-07T21:11:32.341Z,99.90
2019-05-07T21:14:03.074Z,99.90
2019-05-07T21:16:32.906Z,99.90
2019-05-07T21:19:02.204Z,99.90
2019-05-07T21:21:32.697Z,99.90
2019-05-07T21:24:02.225Z,99.90
2019-05-07T21:26:32.740Z,99.90
2019-05-07T21:29:03.047Z,99.90
2019-05-07T21:31:32.408Z,99.90
2019-05-07T21:34:03.046Z,99.90
2019-05-07T21:36:32.499Z,99.90
2019-05-07T21:39:02.246Z,99.90
2019-05-07T21:41:33.528Z,99.90
2019-05-07T21:44:02.521Z,99.90
2019-05-07T21:46:32.975Z,99.90
2019-05-07T21:49:02.626Z,99.90
2019-05-07T21:51:32.099Z,99.90
2019-05-07T21:54:03.649Z,99.90
2019-05-07T21:56:37.030Z,99.90
2019-05-07T21:59:09.449Z,99.90
2019-05-07T22:01:43.469Z,99.90
2019-05-07T22:04:12.502Z,99.90
2019-05-07T22:06:42.838Z,99.90
2019-05-07T22:09:12.863Z,99.90
2019-05-07T22:11:42.745Z,99.90
2019-05-07T22:14:12.893Z,99.90
2019-05-07T22:16:42.401Z,99.90
2019-05-07T22:19:12.093Z,99.90
2019-05-07T22:21:43.243Z,99.90
2019-05-07T22:24:13.101Z,99.90
2019-05-07T22:26:42.367Z,99.90
2019-05-07T22:29:12.511Z,99.90
2019-05-07T22:31:46.337Z,99.90
2019-05-07T22:34:22.420Z,99.90
2019-05-07T22:36:52.105Z,99.90
2019-05-07T22:39:22.126Z,99.90
2019-05-07T22:41:51.174Z,99.90
2019-05-07T22:44:23.684Z,99.90
2019-05-07T22:46:52.598Z,99.90
2019-05-07T22:49:22.740Z,99.90
2019-05-07T22:51:54.622Z,99.90
2019-05-07T22:54:22.572Z,99.90
2019-05-07T22:56:59.173Z,99.90
2019-05-07T22:59:27.931Z,99.90
2019-05-07T23:01:56.831Z,99.90
2019-05-07T23:04:25.949Z,99.90
2019-05-07T23:06:54.701Z,99.90
2019-05-07T23:09:23.587Z,99.90
2019-05-07T23:11:54.905Z,99.90
2019-05-07T23:14:22.866Z,99.90
2019-05-07T23:16:52.651Z,99.90
2019-05-07T23:19:22.452Z,99.90
2019-05-07T23:21:52.184Z,99.90
2019-05-07T23:24:22.602Z,99.90
2019-05-07T23:26:53.602Z,99.90
2019-05-07T23:29:22.544Z,99.90
2019-05-07T23:31:52.885Z,99.90
2019-05-07T23:34:22.410Z,99.90
2019-05-07T23:36:53.448Z,99.90
2019-05-07T23:39:23.675Z,99.90
2019-05-07T23:41:54.076Z,99.90
2019-05-07T23:44:22.999Z,99.90
2019-05-07T23:46:52.146Z,99.90
2019-05-07T23:49:22.969Z,99.90
2019-05-07T23:51:53.078Z,99.90
2019-05-07T23:54:23.047Z,99.90
2019-05-07T23:57:05.119Z,99.90
2019-05-07T23:59:22.661Z,99.90
